sensor_id;sensor_type;location;lat;lon;timestamp;temperature;humidity
7030;DHT22;3556;53.500;10.176;2023-07-20T00:00:28;13.00;99.90
7030;DHT22;3556;53.500;10.176;2023-07-20T00:03:10;13.00;99.90
7030;DHT22;3556;53.500;10.176;2023-07-20T00:05:36;12.90;99.90
7030;DHT22;3556;53.500;10.176;2023-07-20T00:08:01;12.90;99.90
7030;DHT22;3556;53.500;10.176;2023-07-20T00:10:27;12.90;99.90
7030;DHT22;3556;53.500;10.176;2023-07-20T00:12:53;12.90;99.90
7030;DHT22;3556;53.500;10.176;2023-07-20T00:15:18;12.90;99.90
7030;DHT22;3556;53.500;10.176;2023-07-20T00:17:44;12.90;99.90
7030;DHT22;3556;53.500;10.176;2023-07-20T00:20:10;12.90;99.90
7030;DHT22;3556;53.500;10.176;2023-07-20T00:22:36;12.90;99.90
7030;DHT22;3556;53.500;10.176;2023-07-20T00:25:02;12.80;99.90
7030;DHT22;3556;53.500;10.176;2023-07-20T00:27:28;12.90;99.90
7030;DHT22;3556;53.500;10.176;2023-07-20T00:29:54;12.90;99.90
7030;DHT22;3556;53.500;10.176;2023-07-20T00:32:19;12.90;99.90
7030;DHT22;3556;53.500;10.176;2023-07-20T00:34:45;12.90;99.90
7030;DHT22;3556;53.500;10.176;2023-07-20T00:37:10;12.90;99.90
7030;DHT22;3556;53.500;10.176;2023-07-20T00:39:36;12.80;99.90
7030;DHT22;3556;53.500;10.176;2023-07-20T00:42:02;12.90;99.90
7030;DHT22;3556;53.500;10.176;2023-07-20T00:44:27;12.90;99.90
7030;DHT22;3556;53.500;10.176;2023-07-20T00:46:53;12.90;99.90
7030;DHT22;3556;53.500;10.176;2023-07-20T00:49:19;12.90;99.90
7030;DHT22;3556;53.500;10.176;2023-07-20T00:51:48;12.90;99.90
7030;DHT22;3556;53.500;10.176;2023-07-20T00:54:15;13.00;99.90
7030;DHT22;3556;53.500;10.176;2023-07-20T00:56:40;13.00;99.90
7030;DHT22;3556;53.500;10.176;2023-07-20T00:59:06;13.00;99.90
7030;DHT22;3556;53.500;10.176;2023-07-20T01:01:32;12.90;99.90
7030;DHT22;3556;53.500;10.176;2023-07-20T01:03:58;13.00;99.90
7030;DHT22;3556;53.500;10.176;2023-07-20T01:09:39;13.00;99.90
7030;DHT22;3556;53.500;10.176;2023-07-20T01:12:29;13.10;99.90
7030;DHT22;3556;53.500;10.176;2023-07-20T01:14:55;13.10;99.90
7030;DHT22;3556;53.500;10.176;2023-07-20T01:17:21;13.20;99.90
7030;DHT22;3556;53.500;10.176;2023-07-20T01:19:49;13.20;99.90
7030;DHT22;3556;53.500;10.176;2023-07-20T01:22:47;13.20;99.90
7030;DHT22;3556;53.500;10.176;2023-07-20T01:31:25;13.30;99.90
7030;DHT22;3556;53.500;10.176;2023-07-20T01:33:54;13.40;99.90
7030;DHT22;3556;53.500;10.176;2023-07-20T01:36:22;13.40;99.90
7030;DHT22;3556;53.500;10.176;2023-07-20T01:38:49;13.50;99.90
7030;DHT22;3556;53.500;10.176;2023-07-20T01:41:15;13.50;99.90
7030;DHT22;3556;53.500;10.176;2023-07-20T01:43:42;13.50;99.90
7030;DHT22;3556;53.500;10.176;2023-07-20T01:46:07;13.50;99.90
7030;DHT22;3556;53.500;10.176;2023-07-20T01:48:33;13.60;99.90
7030;DHT22;3556;53.500;10.176;2023-07-20T01:50:58;13.50;99.90
7030;DHT22;3556;53.500;10.176;2023-07-20T01:53:24;13.60;99.90
7030;DHT22;3556;53.500;10.176;2023-07-20T01:55:53;13.60;99.90
7030;DHT22;3556;53.500;10.176;2023-07-20T01:58:19;13.60;99.90
7030;DHT22;3556;53.500;10.176;2023-07-20T02:00:45;13.60;99.90
7030;DHT22;3556;53.500;10.176;2023-07-20T02:03:11;13.60;99.90
7030;DHT22;3556;53.500;10.176;2023-07-20T02:05:37;13.60;99.90
7030;DHT22;3556;53.500;10.176;2023-07-20T02:08:03;13.60;99.90
7030;DHT22;3556;53.500;10.176;2023-07-20T02:10:29;13.60;99.90
7030;DHT22;3556;53.500;10.176;2023-07-20T02:12:54;13.60;99.90
7030;DHT22;3556;53.500;10.176;2023-07-20T02:15:20;13.60;99.90
7030;DHT22;3556;53.500;10.176;2023-07-20T02:17:46;13.60;99.90
7030;DHT22;3556;53.500;10.176;2023-07-20T02:20:12;13.60;99.90
7030;DHT22;3556;53.500;10.176;2023-07-20T02:22:38;13.60;99.90
7030;DHT22;3556;53.500;10.176;2023-07-20T02:25:05;13.60;99.90
7030;DHT22;3556;53.500;10.176;2023-07-20T02:27:35;13.60;99.90
7030;DHT22;3556;53.500;10.176;2023-07-20T02:30:01;13.60;99.90
7030;DHT22;3556;53.500;10.176;2023-07-20T02:32:28;13.60;99.90
7030;DHT22;3556;53.500;10.176;2023-07-20T02:34:53;13.60;99.90
7030;DHT22;3556;53.500;10.176;2023-07-20T02:37:19;13.70;99.90
7030;DHT22;3556;53.500;10.176;2023-07-20T02:39:44;13.70;99.90
7030;DHT22;3556;53.500;10.176;2023-07-20T02:42:10;13.70;99.90
7030;DHT22;3556;53.500;10.176;2023-07-20T02:44:36;13.70;99.90
7030;DHT22;3556;53.500;10.176;2023-07-20T02:47:01;13.70;99.90
7030;DHT22;3556;53.500;10.176;2023-07-20T02:49:27;13.70;99.90
7030;DHT22;3556;53.500;10.176;2023-07-20T02:51:53;13.70;99.90
7030;DHT22;3556;53.500;10.176;2023-07-20T02:54:19;13.70;99.90
7030;DHT22;3556;53.500;10.176;2023-07-20T02:56:45;13.70;99.90
7030;DHT22;3556;53.500;10.176;2023-07-20T02:59:10;13.70;99.90
7030;DHT22;3556;53.500;10.176;2023-07-20T03:01:36;13.70;99.90
7030;DHT22;3556;53.500;10.176;2023-07-20T03:04:02;13.70;99.90
7030;DHT22;3556;53.500;10.176;2023-07-20T03:06:28;13.70;99.90
7030;DHT22;3556;53.500;10.176;2023-07-20T03:08:53;13.70;99.90
7030;DHT22;3556;53.500;10.176;2023-07-20T03:11:20;13.70;99.90
7030;DHT22;3556;53.500;10.176;2023-07-20T03:13:46;13.70;99.90
7030;DHT22;3556;53.500;10.176;2023-07-20T03:16:15;13.70;99.90
7030;DHT22;3556;53.500;10.176;2023-07-20T03:18:43;13.70;99.90
7030;DHT22;3556;53.500;10.176;2023-07-20T03:21:09;13.70;99.90
7030;DHT22;3556;53.500;10.176;2023-07-20T03:23:40;13.70;99.90
7030;DHT22;3556;53.500;10.176;2023-07-20T03:26:06;13.70;99.90
7030;DHT22;3556;53.500;10.176;2023-07-20T03:28:36;13.70;99.90
7030;DHT22;3556;53.500;10.176;2023-07-20T03:31:03;13.70;99.90
7030;DHT22;3556;53.500;10.176;2023-07-20T03:33:29;13.70;99.90
7030;DHT22;3556;53.500;10.176;2023-07-20T03:35:56;13.70;99.90
7030;DHT22;3556;53.500;10.176;2023-07-20T03:38:22;13.70;99.90
7030;DHT22;3556;53.500;10.176;2023-07-20T03:40:55;13.70;99.90
7030;DHT22;3556;53.500;10.176;2023-07-20T03:43:22;13.70;99.90
7030;DHT22;3556;53.500;10.176;2023-07-20T03:45:48;13.70;99.90
7030;DHT22;3556;53.500;10.176;2023-07-20T03:48:16;13.70;99.90
7030;DHT22;3556;53.500;10.176;2023-07-20T03:50:43;13.70;99.90
7030;DHT22;3556;53.500;10.176;2023-07-20T03:53:09;13.70;99.90
7030;DHT22;3556;53.500;10.176;2023-07-20T03:55:35;13.70;99.90
7030;DHT22;3556;53.500;10.176;2023-07-20T03:58:01;13.70;99.90
7030;DHT22;3556;53.500;10.176;2023-07-20T04:00:27;13.70;99.90
7030;DHT22;3556;53.500;10.176;2023-07-20T04:02:52;13.70;99.90
7030;DHT22;3556;53.500;10.176;2023-07-20T04:05:19;13.70;99.90
7030;DHT22;3556;53.500;10.176;2023-07-20T04:07:44;13.70;99.90
7030;DHT22;3556;53.500;10.176;2023-07-20T04:10:10;13.70;99.90
7030;DHT22;3556;53.500;10.176;2023-07-20T04:12:36;13.70;99.90
7030;DHT22;3556;53.500;10.176;2023-07-20T04:15:01;13.70;99.90
7030;DHT22;3556;53.500;10.176;2023-07-20T04:17:29;13.70;99.90
7030;DHT22;3556;53.500;10.176;2023-07-20T04:19:55;13.70;99.90
7030;DHT22;3556;53.500;10.176;2023-07-20T04:22:21;13.70;99.90
7030;DHT22;3556;53.500;10.176;2023-07-20T04:24:47;13.70;99.90
7030;DHT22;3556;53.500;10.176;2023-07-20T04:27:12;13.70;99.90
7030;DHT22;3556;53.500;10.176;2023-07-20T04:29:38;13.70;99.90
7030;DHT22;3556;53.500;10.176;2023-07-20T04:32:04;13.70;99.90
7030;DHT22;3556;53.500;10.176;2023-07-20T04:34:30;13.70;99.90
7030;DHT22;3556;53.500;10.176;2023-07-20T04:36:55;13.80;99.90
7030;DHT22;3556;53.500;10.176;2023-07-20T04:39:21;13.80;99.90
7030;DHT22;3556;53.500;10.176;2023-07-20T04:41:47;13.80;99.90
7030;DHT22;3556;53.500;10.176;2023-07-20T04:44:13;13.90;99.90
7030;DHT22;3556;53.500;10.176;2023-07-20T04:46:39;13.80;99.90
7030;DHT22;3556;53.500;10.176;2023-07-20T04:49:06;13.80;99.90
7030;DHT22;3556;53.500;10.176;2023-07-20T04:51:31;13.90;99.90
7030;DHT22;3556;53.500;10.176;2023-07-20T04:53:57;13.90;99.90
7030;DHT22;3556;53.500;10.176;2023-07-20T04:56:23;14.00;99.90
7030;DHT22;3556;53.500;10.176;2023-07-20T04:58:50;14.00;99.90
7030;DHT22;3556;53.500;10.176;2023-07-20T05:01:15;14.00;99.90
7030;DHT22;3556;53.500;10.176;2023-07-20T05:03:41;14.00;99.90
7030;DHT22;3556;53.500;10.176;2023-07-20T05:06:07;14.00;99.90
7030;DHT22;3556;53.500;10.176;2023-07-20T05:08:32;14.00;99.90
7030;DHT22;3556;53.500;10.176;2023-07-20T05:10:59;14.00;99.90
7030;DHT22;3556;53.500;10.176;2023-07-20T05:13:25;14.10;99.90
7030;DHT22;3556;53.500;10.176;2023-07-20T05:15:51;14.10;99.90
7030;DHT22;3556;53.500;10.176;2023-07-20T05:18:18;14.20;99.90
7030;DHT22;3556;53.500;10.176;2023-07-20T05:20:46;14.20;99.90
7030;DHT22;3556;53.500;10.176;2023-07-20T05:23:12;14.30;99.90
7030;DHT22;3556;53.500;10.176;2023-07-20T05:25:38;14.30;99.90
7030;DHT22;3556;53.500;10.176;2023-07-20T05:28:04;14.40;99.90
7030;DHT22;3556;53.500;10.176;2023-07-20T05:30:29;14.40;99.90
7030;DHT22;3556;53.500;10.176;2023-07-20T05:32:55;14.40;99.90
7030;DHT22;3556;53.500;10.176;2023-07-20T05:35:21;14.50;99.90
7030;DHT22;3556;53.500;10.176;2023-07-20T05:37:47;14.50;99.90
7030;DHT22;3556;53.500;10.176;2023-07-20T05:40:14;14.50;99.90
7030;DHT22;3556;53.500;10.176;2023-07-20T05:42:43;14.50;99.90
7030;DHT22;3556;53.500;10.176;2023-07-20T05:45:09;14.50;99.90
7030;DHT22;3556;53.500;10.176;2023-07-20T05:47:35;14.60;99.90
7030;DHT22;3556;53.500;10.176;2023-07-20T05:50:00;14.60;99.90
7030;DHT22;3556;53.500;10.176;2023-07-20T05:52:26;14.60;99.90
7030;DHT22;3556;53.500;10.176;2023-07-20T05:54:51;14.70;99.90
7030;DHT22;3556;53.500;10.176;2023-07-20T05:57:17;14.70;99.90
7030;DHT22;3556;53.500;10.176;2023-07-20T05:59:43;14.80;99.90
7030;DHT22;3556;53.500;10.176;2023-07-20T06:02:10;14.80;99.90
7030;DHT22;3556;53.500;10.176;2023-07-20T06:04:36;14.80;99.90
7030;DHT22;3556;53.500;10.176;2023-07-20T06:07:02;14.90;99.90
7030;DHT22;3556;53.500;10.176;2023-07-20T06:09:27;14.90;99.90
7030;DHT22;3556;53.500;10.176;2023-07-20T06:11:54;15.00;99.90
7030;DHT22;3556;53.500;10.176;2023-07-20T06:14:20;15.10;99.90
7030;DHT22;3556;53.500;10.176;2023-07-20T06:16:46;15.10;99.90
7030;DHT22;3556;53.500;10.176;2023-07-20T06:19:11;15.20;99.90
7030;DHT22;3556;53.500;10.176;2023-07-20T06:21:38;15.30;99.90
7030;DHT22;3556;53.500;10.176;2023-07-20T06:24:03;15.30;99.90
7030;DHT22;3556;53.500;10.176;2023-07-20T06:26:29;15.30;99.90
7030;DHT22;3556;53.500;10.176;2023-07-20T06:28:56;15.40;99.90
7030;DHT22;3556;53.500;10.176;2023-07-20T06:31:21;15.40;99.90
7030;DHT22;3556;53.500;10.176;2023-07-20T06:33:47;15.40;99.90
7030;DHT22;3556;53.500;10.176;2023-07-20T06:36:13;15.40;99.90
7030;DHT22;3556;53.500;10.176;2023-07-20T06:38:38;15.50;99.90
7030;DHT22;3556;53.500;10.176;2023-07-20T06:41:04;15.50;99.90
7030;DHT22;3556;53.500;10.176;2023-07-20T06:43:29;15.50;99.90
7030;DHT22;3556;53.500;10.176;2023-07-20T06:45:55;15.60;99.90
7030;DHT22;3556;53.500;10.176;2023-07-20T06:48:21;15.60;99.90
7030;DHT22;3556;53.500;10.176;2023-07-20T06:50:47;15.70;99.90
7030;DHT22;3556;53.500;10.176;2023-07-20T06:53:13;15.90;99.90
7030;DHT22;3556;53.500;10.176;2023-07-20T06:55:38;15.90;99.90
7030;DHT22;3556;53.500;10.176;2023-07-20T06:58:04;16.00;99.90
7030;DHT22;3556;53.500;10.176;2023-07-20T07:00:30;16.10;99.90
7030;DHT22;3556;53.500;10.176;2023-07-20T07:02:56;16.30;99.90
7030;DHT22;3556;53.500;10.176;2023-07-20T07:05:21;16.40;99.90
7030;DHT22;3556;53.500;10.176;2023-07-20T07:07:47;16.50;99.90
7030;DHT22;3556;53.500;10.176;2023-07-20T07:10:13;16.50;99.90
7030;DHT22;3556;53.500;10.176;2023-07-20T07:12:39;16.50;99.90
7030;DHT22;3556;53.500;10.176;2023-07-20T07:15:05;16.50;99.90
7030;DHT22;3556;53.500;10.176;2023-07-20T07:17:33;16.50;99.90
7030;DHT22;3556;53.500;10.176;2023-07-20T07:20:00;16.40;99.90
7030;DHT22;3556;53.500;10.176;2023-07-20T07:22:26;16.50;99.90
7030;DHT22;3556;53.500;10.176;2023-07-20T07:24:51;16.50;99.90
7030;DHT22;3556;53.500;10.176;2023-07-20T07:27:17;16.60;99.90
7030;DHT22;3556;53.500;10.176;2023-07-20T07:29:43;16.70;99.90
7030;DHT22;3556;53.500;10.176;2023-07-20T07:32:12;16.80;99.90
7030;DHT22;3556;53.500;10.176;2023-07-20T07:34:38;16.80;99.90
7030;DHT22;3556;53.500;10.176;2023-07-20T07:37:06;16.90;99.90
7030;DHT22;3556;53.500;10.176;2023-07-20T07:39:32;16.90;99.90
7030;DHT22;3556;53.500;10.176;2023-07-20T07:41:58;16.80;99.90
7030;DHT22;3556;53.500;10.176;2023-07-20T07:44:24;16.80;99.90
7030;DHT22;3556;53.500;10.176;2023-07-20T07:46:50;16.80;99.90
7030;DHT22;3556;53.500;10.176;2023-07-20T07:49:16;16.90;99.90
7030;DHT22;3556;53.500;10.176;2023-07-20T07:51:42;17.00;99.90
7030;DHT22;3556;53.500;10.176;2023-07-20T07:54:07;17.00;99.90
7030;DHT22;3556;53.500;10.176;2023-07-20T07:56:33;17.00;99.90
7030;DHT22;3556;53.500;10.176;2023-07-20T07:58:59;17.10;99.90
7030;DHT22;3556;53.500;10.176;2023-07-20T08:01:24;17.20;99.90
7030;DHT22;3556;53.500;10.176;2023-07-20T08:03:50;17.30;99.90
7030;DHT22;3556;53.500;10.176;2023-07-20T08:06:16;17.30;99.90
7030;DHT22;3556;53.500;10.176;2023-07-20T08:08:42;17.30;99.90
7030;DHT22;3556;53.500;10.176;2023-07-20T08:11:08;17.20;99.90
7030;DHT22;3556;53.500;10.176;2023-07-20T08:13:34;17.00;99.90
7030;DHT22;3556;53.500;10.176;2023-07-20T08:16:00;16.90;99.90
7030;DHT22;3556;53.500;10.176;2023-07-20T08:18:27;16.80;99.90
7030;DHT22;3556;53.500;10.176;2023-07-20T08:20:53;16.80;99.90
7030;DHT22;3556;53.500;10.176;2023-07-20T08:23:19;16.90;99.90
7030;DHT22;3556;53.500;10.176;2023-07-20T08:25:45;17.10;99.90
7030;DHT22;3556;53.500;10.176;2023-07-20T08:28:13;17.30;99.90
7030;DHT22;3556;53.500;10.176;2023-07-20T08:30:44;17.40;99.90
7030;DHT22;3556;53.500;10.176;2023-07-20T08:33:12;17.60;99.90
7030;DHT22;3556;53.500;10.176;2023-07-20T08:35:38;17.60;99.90
7030;DHT22;3556;53.500;10.176;2023-07-20T08:38:03;17.50;99.90
7030;DHT22;3556;53.500;10.176;2023-07-20T08:40:34;17.50;99.90
7030;DHT22;3556;53.500;10.176;2023-07-20T08:43:04;17.50;99.90
7030;DHT22;3556;53.500;10.176;2023-07-20T08:45:30;17.50;99.90
7030;DHT22;3556;53.500;10.176;2023-07-20T08:48:01;17.70;99.90
7030;DHT22;3556;53.500;10.176;2023-07-20T08:50:30;17.80;99.90
7030;DHT22;3556;53.500;10.176;2023-07-20T08:52:57;17.90;99.90
7030;DHT22;3556;53.500;10.176;2023-07-20T08:55:25;18.00;99.90
7030;DHT22;3556;53.500;10.176;2023-07-20T08:57:59;18.00;99.90
7030;DHT22;3556;53.500;10.176;2023-07-20T09:00:26;18.00;99.90
7030;DHT22;3556;53.500;10.176;2023-07-20T09:02:55;18.00;99.90
7030;DHT22;3556;53.500;10.176;2023-07-20T09:05:23;18.10;99.90
7030;DHT22;3556;53.500;10.176;2023-07-20T09:07:51;18.00;99.90
7030;DHT22;3556;53.500;10.176;2023-07-20T09:10:18;18.00;99.90
7030;DHT22;3556;53.500;10.176;2023-07-20T09:12:45;17.90;99.90
7030;DHT22;3556;53.500;10.176;2023-07-20T09:15:11;17.70;99.90
7030;DHT22;3556;53.500;10.176;2023-07-20T09:17:38;17.60;99.90
7030;DHT22;3556;53.500;10.176;2023-07-20T09:20:05;17.30;99.90
7030;DHT22;3556;53.500;10.176;2023-07-20T09:22:39;17.20;99.90
7030;DHT22;3556;53.500;10.176;2023-07-20T09:25:16;17.20;99.90
7030;DHT22;3556;53.500;10.176;2023-07-20T09:27:44;17.30;99.90
7030;DHT22;3556;53.500;10.176;2023-07-20T09:30:10;17.50;99.90
7030;DHT22;3556;53.500;10.176;2023-07-20T09:32:49;17.60;99.90
7030;DHT22;3556;53.500;10.176;2023-07-20T09:35:20;17.70;99.90
7030;DHT22;3556;53.500;10.176;2023-07-20T09:38:12;17.80;99.90
7030;DHT22;3556;53.500;10.176;2023-07-20T09:40:40;18.00;99.90
7030;DHT22;3556;53.500;10.176;2023-07-20T09:43:08;18.10;99.90
7030;DHT22;3556;53.500;10.176;2023-07-20T09:45:35;18.40;99.90
7030;DHT22;3556;53.500;10.176;2023-07-20T09:48:05;18.60;99.90
7030;DHT22;3556;53.500;10.176;2023-07-20T09:50:50;18.80;99.90
7030;DHT22;3556;53.500;10.176;2023-07-20T09:53:17;18.80;99.90
7030;DHT22;3556;53.500;10.176;2023-07-20T09:55:47;18.70;99.90
7030;DHT22;3556;53.500;10.176;2023-07-20T09:58:14;18.40;99.90
7030;DHT22;3556;53.500;10.176;2023-07-20T10:00:41;18.10;99.90
7030;DHT22;3556;53.500;10.176;2023-07-20T10:03:11;17.70;99.90
7030;DHT22;3556;53.500;10.176;2023-07-20T10:05:40;17.50;99.90
7030;DHT22;3556;53.500;10.176;2023-07-20T10:08:11;17.40;99.90
7030;DHT22;3556;53.500;10.176;2023-07-20T10:10:39;17.30;99.90
7030;DHT22;3556;53.500;10.176;2023-07-20T10:13:12;17.30;99.90
7030;DHT22;3556;53.500;10.176;2023-07-20T10:15:54;17.30;99.90
7030;DHT22;3556;53.500;10.176;2023-07-20T10:20:56;17.60;99.90
7030;DHT22;3556;53.500;10.176;2023-07-20T10:23:24;17.80;99.90
7030;DHT22;3556;53.500;10.176;2023-07-20T10:25:52;18.00;99.90
7030;DHT22;3556;53.500;10.176;2023-07-20T10:28:18;18.20;99.90
7030;DHT22;3556;53.500;10.176;2023-07-20T10:30:45;18.30;99.90
7030;DHT22;3556;53.500;10.176;2023-07-20T10:33:11;18.40;99.90
7030;DHT22;3556;53.500;10.176;2023-07-20T10:36:05;18.60;99.90
7030;DHT22;3556;53.500;10.176;2023-07-20T10:38:56;18.80;99.90
7030;DHT22;3556;53.500;10.176;2023-07-20T10:41:37;19.10;99.90
7030;DHT22;3556;53.500;10.176;2023-07-20T10:44:07;19.30;99.90
7030;DHT22;3556;53.500;10.176;2023-07-20T10:46:44;19.50;99.90
7030;DHT22;3556;53.500;10.176;2023-07-20T10:49:11;19.60;99.90
7030;DHT22;3556;53.500;10.176;2023-07-20T10:51:47;19.70;99.90
7030;DHT22;3556;53.500;10.176;2023-07-20T10:56:43;19.90;99.90
7030;DHT22;3556;53.500;10.176;2023-07-20T11:01:57;20.20;99.90
7030;DHT22;3556;53.500;10.176;2023-07-20T11:04:43;20.40;99.90
7030;DHT22;3556;53.500;10.176;2023-07-20T11:07:09;20.60;99.90
7030;DHT22;3556;53.500;10.176;2023-07-20T11:09:38;20.60;99.90
7030;DHT22;3556;53.500;10.176;2023-07-20T11:12:17;20.30;99.90
7030;DHT22;3556;53.500;10.176;2023-07-20T11:14:53;20.00;99.90
7030;DHT22;3556;53.500;10.176;2023-07-20T11:17:19;20.00;99.90
7030;DHT22;3556;53.500;10.176;2023-07-20T11:19:55;20.20;99.90
7030;DHT22;3556;53.500;10.176;2023-07-20T11:22:21;20.30;99.90
7030;DHT22;3556;53.500;10.176;2023-07-20T11:24:47;20.30;99.90
7030;DHT22;3556;53.500;10.176;2023-07-20T11:27:14;20.20;99.90
7030;DHT22;3556;53.500;10.176;2023-07-20T11:29:40;20.10;99.90
7030;DHT22;3556;53.500;10.176;2023-07-20T11:32:06;20.20;99.90
7030;DHT22;3556;53.500;10.176;2023-07-20T11:34:33;20.10;99.90
7030;DHT22;3556;53.500;10.176;2023-07-20T11:36:59;19.80;99.90
7030;DHT22;3556;53.500;10.176;2023-07-20T11:39:25;19.50;99.90
7030;DHT22;3556;53.500;10.176;2023-07-20T11:41:58;19.40;99.90
7030;DHT22;3556;53.500;10.176;2023-07-20T11:44:25;19.10;99.90
7030;DHT22;3556;53.500;10.176;2023-07-20T11:49:36;18.80;99.90
7030;DHT22;3556;53.500;10.176;2023-07-20T11:52:06;18.70;99.90
7030;DHT22;3556;53.500;10.176;2023-07-20T11:54:33;18.60;99.90
7030;DHT22;3556;53.500;10.176;2023-07-20T11:57:03;18.60;99.90
7030;DHT22;3556;53.500;10.176;2023-07-20T11:59:31;18.70;99.90
7030;DHT22;3556;53.500;10.176;2023-07-20T12:02:06;18.70;99.90
7030;DHT22;3556;53.500;10.176;2023-07-20T12:04:32;18.80;99.90
7030;DHT22;3556;53.500;10.176;2023-07-20T12:06:58;19.00;99.90
7030;DHT22;3556;53.500;10.176;2023-07-20T12:09:24;19.00;99.90
7030;DHT22;3556;53.500;10.176;2023-07-20T12:11:50;19.20;99.90
7030;DHT22;3556;53.500;10.176;2023-07-20T12:14:16;19.30;99.90
7030;DHT22;3556;53.500;10.176;2023-07-20T12:16:42;19.40;99.90
7030;DHT22;3556;53.500;10.176;2023-07-20T12:19:12;19.50;99.90
7030;DHT22;3556;53.500;10.176;2023-07-20T12:21:40;19.60;99.90
7030;DHT22;3556;53.500;10.176;2023-07-20T12:24:08;19.70;99.90
7030;DHT22;3556;53.500;10.176;2023-07-20T12:26:35;19.70;99.90
7030;DHT22;3556;53.500;10.176;2023-07-20T12:29:01;19.80;99.90
7030;DHT22;3556;53.500;10.176;2023-07-20T12:31:29;19.80;99.90
7030;DHT22;3556;53.500;10.176;2023-07-20T12:33:57;20.00;99.90
7030;DHT22;3556;53.500;10.176;2023-07-20T12:36:23;20.20;99.90
7030;DHT22;3556;53.500;10.176;2023-07-20T12:38:49;20.40;99.90
7030;DHT22;3556;53.500;10.176;2023-07-20T12:41:15;20.50;99.90
7030;DHT22;3556;53.500;10.176;2023-07-20T12:43:41;20.60;99.90
7030;DHT22;3556;53.500;10.176;2023-07-20T12:46:08;20.60;99.90
7030;DHT22;3556;53.500;10.176;2023-07-20T12:48:35;20.60;99.90
7030;DHT22;3556;53.500;10.176;2023-07-20T12:51:06;20.50;99.90
7030;DHT22;3556;53.500;10.176;2023-07-20T12:53:32;20.40;99.90
7030;DHT22;3556;53.500;10.176;2023-07-20T12:55:58;20.30;99.90
7030;DHT22;3556;53.500;10.176;2023-07-20T12:58:24;20.10;99.90
7030;DHT22;3556;53.500;10.176;2023-07-20T13:00:50;20.00;99.90
7030;DHT22;3556;53.500;10.176;2023-07-20T13:03:15;19.80;99.90
7030;DHT22;3556;53.500;10.176;2023-07-20T13:05:44;19.70;99.90
7030;DHT22;3556;53.500;10.176;2023-07-20T13:08:09;19.60;99.90
7030;DHT22;3556;53.500;10.176;2023-07-20T13:10:35;19.70;99.90
7030;DHT22;3556;53.500;10.176;2023-07-20T13:13:01;19.70;99.90
7030;DHT22;3556;53.500;10.176;2023-07-20T13:15:30;19.80;99.90
7030;DHT22;3556;53.500;10.176;2023-07-20T13:17:57;20.00;99.90
7030;DHT22;3556;53.500;10.176;2023-07-20T13:20:24;20.20;99.90
7030;DHT22;3556;53.500;10.176;2023-07-20T13:22:49;20.50;99.90
7030;DHT22;3556;53.500;10.176;2023-07-20T13:25:16;20.60;99.90
7030;DHT22;3556;53.500;10.176;2023-07-20T13:27:41;20.80;99.90
7030;DHT22;3556;53.500;10.176;2023-07-20T13:30:07;21.10;99.90
7030;DHT22;3556;53.500;10.176;2023-07-20T13:32:35;21.50;99.90
7030;DHT22;3556;53.500;10.176;2023-07-20T13:35:01;21.60;99.90
7030;DHT22;3556;53.500;10.176;2023-07-20T13:37:27;21.50;99.90
7030;DHT22;3556;53.500;10.176;2023-07-20T13:39:53;21.20;99.70
7030;DHT22;3556;53.500;10.176;2023-07-20T13:42:19;21.10;96.80
7030;DHT22;3556;53.500;10.176;2023-07-20T13:44:47;20.90;99.90
7030;DHT22;3556;53.500;10.176;2023-07-20T13:47:13;21.00;97.40
7030;DHT22;3556;53.500;10.176;2023-07-20T13:49:39;21.20;99.90
7030;DHT22;3556;53.500;10.176;2023-07-20T13:52:05;21.30;99.50
7030;DHT22;3556;53.500;10.176;2023-07-20T13:54:31;21.50;99.90
7030;DHT22;3556;53.500;10.176;2023-07-20T13:56:56;21.90;99.90
7030;DHT22;3556;53.500;10.176;2023-07-20T13:59:23;22.10;99.90
7030;DHT22;3556;53.500;10.176;2023-07-20T14:01:48;22.30;98.70
7030;DHT22;3556;53.500;10.176;2023-07-20T14:04:14;22.40;92.90
7030;DHT22;3556;53.500;10.176;2023-07-20T14:06:40;22.20;92.90
7030;DHT22;3556;53.500;10.176;2023-07-20T14:09:06;21.80;94.20
7030;DHT22;3556;53.500;10.176;2023-07-20T14:11:32;21.70;96.50
7030;DHT22;3556;53.500;10.176;2023-07-20T14:13:57;21.60;97.40
7030;DHT22;3556;53.500;10.176;2023-07-20T14:16:26;21.60;98.10
7030;DHT22;3556;53.500;10.176;2023-07-20T14:18:51;21.60;98.20
7030;DHT22;3556;53.500;10.176;2023-07-20T14:21:19;21.60;99.90
7030;DHT22;3556;53.500;10.176;2023-07-20T14:23:49;21.40;98.60
7030;DHT22;3556;53.500;10.176;2023-07-20T14:26:18;21.30;99.90
7030;DHT22;3556;53.500;10.176;2023-07-20T14:28:44;21.40;99.90
7030;DHT22;3556;53.500;10.176;2023-07-20T14:31:10;21.60;99.90
7030;DHT22;3556;53.500;10.176;2023-07-20T14:33:35;21.80;99.30
7030;DHT22;3556;53.500;10.176;2023-07-20T14:36:02;22.00;99.90
7030;DHT22;3556;53.500;10.176;2023-07-20T14:38:28;22.20;98.10
7030;DHT22;3556;53.500;10.176;2023-07-20T14:40:54;22.30;98.80
7030;DHT22;3556;53.500;10.176;2023-07-20T14:43:20;22.40;94.80
7030;DHT22;3556;53.500;10.176;2023-07-20T14:45:46;22.50;95.10
7030;DHT22;3556;53.500;10.176;2023-07-20T14:48:12;22.70;94.90
7030;DHT22;3556;53.500;10.176;2023-07-20T14:50:37;22.70;93.70
7030;DHT22;3556;53.500;10.176;2023-07-20T14:53:03;22.50;95.20
7030;DHT22;3556;53.500;10.176;2023-07-20T14:55:28;22.30;94.80
7030;DHT22;3556;53.500;10.176;2023-07-20T14:57:54;22.10;93.50
7030;DHT22;3556;53.500;10.176;2023-07-20T15:00:20;21.90;95.70
7030;DHT22;3556;53.500;10.176;2023-07-20T15:02:46;21.90;94.50
7030;DHT22;3556;53.500;10.176;2023-07-20T15:05:12;21.80;93.90
7030;DHT22;3556;53.500;10.176;2023-07-20T15:07:45;21.80;93.00
7030;DHT22;3556;53.500;10.176;2023-07-20T15:10:10;21.80;93.30
7030;DHT22;3556;53.500;10.176;2023-07-20T15:12:36;21.80;93.30
7030;DHT22;3556;53.500;10.176;2023-07-20T15:17:32;21.70;92.50
7030;DHT22;3556;53.500;10.176;2023-07-20T15:19:58;21.70;95.30
7030;DHT22;3556;53.500;10.176;2023-07-20T15:22:25;21.70;96.40
7030;DHT22;3556;53.500;10.176;2023-07-20T15:24:51;21.80;96.50
7030;DHT22;3556;53.500;10.176;2023-07-20T15:27:16;21.80;95.00
7030;DHT22;3556;53.500;10.176;2023-07-20T15:29:42;21.70;95.10
7030;DHT22;3556;53.500;10.176;2023-07-20T15:32:10;21.70;94.60
7030;DHT22;3556;53.500;10.176;2023-07-20T15:34:35;21.70;94.90
7030;DHT22;3556;53.500;10.176;2023-07-20T15:37:01;21.80;95.10
7030;DHT22;3556;53.500;10.176;2023-07-20T15:39:26;21.80;97.10
7030;DHT22;3556;53.500;10.176;2023-07-20T15:41:52;21.80;95.20
7030;DHT22;3556;53.500;10.176;2023-07-20T15:44:18;21.70;94.90
7030;DHT22;3556;53.500;10.176;2023-07-20T15:46:45;21.60;95.70
7030;DHT22;3556;53.500;10.176;2023-07-20T15:49:12;21.50;95.50
7030;DHT22;3556;53.500;10.176;2023-07-20T15:51:38;21.40;95.20
7030;DHT22;3556;53.500;10.176;2023-07-20T15:54:05;21.40;95.90
7030;DHT22;3556;53.500;10.176;2023-07-20T15:56:35;21.30;95.90
7030;DHT22;3556;53.500;10.176;2023-07-20T15:59:00;21.20;98.20
7030;DHT22;3556;53.500;10.176;2023-07-20T16:01:26;21.20;98.90
7030;DHT22;3556;53.500;10.176;2023-07-20T16:03:51;21.20;97.10
7030;DHT22;3556;53.500;10.176;2023-07-20T16:06:17;21.20;98.10